createdAt,value
2017-10-26T00:00:44.266Z,101606.11
2017-10-26T00:03:12.576Z,101614.88
2017-10-26T00:05:40.886Z,101604.33
2017-10-26T00:08:09.193Z,101601.87
2017-10-26T00:10:37.505Z,101601.48
2017-10-26T00:13:05.804Z,101605.45
2017-10-26T00:15:34.109Z,101601.48
2017-10-26T00:18:02.425Z,101593.14
2017-10-26T00:20:31.511Z,101595.23
2017-10-26T00:23:00.572Z,101591.66
2017-10-26T00:25:28.880Z,101596.06
2017-10-26T00:27:57.194Z,101596.52
2017-10-26T00:30:25.505Z,101591.48
2017-10-26T00:32:53.808Z,101595.40
2017-10-26T00:35:22.121Z,101595.83
2017-10-26T00:37:50.437Z,101605.12
2017-10-26T00:40:18.755Z,101598.22
2017-10-26T00:42:47.826Z,101601.78
2017-10-26T00:45:16.194Z,101595.38
2017-10-26T00:47:44.495Z,101596.49
2017-10-26T00:50:13.574Z,101602.11
2017-10-26T00:52:41.882Z,101604.61
2017-10-26T00:55:11.004Z,101612.52
2017-10-26T00:57:39.337Z,101611.88
2017-10-26T01:00:07.671Z,101605.67
2017-10-26T01:02:35.974Z,101603.58
2017-10-26T01:05:04.281Z,101610.70
2017-10-26T01:07:33.356Z,101612.45
2017-10-26T01:10:01.679Z,101623.28
2017-10-26T01:12:30.014Z,101620.09
2017-10-26T01:14:58.380Z,101621.35
2017-10-26T01:17:26.677Z,101612.38
2017-10-26T01:19:55.006Z,101609.34
2017-10-26T01:22:23.342Z,101607.80
2017-10-26T01:24:52.413Z,101612.73
2017-10-26T01:27:20.715Z,101598.62
2017-10-26T01:29:49.826Z,101595.55
2017-10-26T01:32:18.129Z,101589.83
2017-10-26T01:34:46.462Z,101593.21
2017-10-26T01:37:15.532Z,101586.59
2017-10-26T01:39:43.906Z,101583.28
2017-10-26T01:42:12.983Z,101589.63
2017-10-26T01:44:41.284Z,101591.42
2017-10-26T01:47:09.586Z,101593.69
2017-10-26T01:49:38.668Z,101591.98
2017-10-26T01:52:06.991Z,101583.06
2017-10-26T01:54:35.297Z,101580.55
2017-10-26T01:57:03.604Z,101583.78
2017-10-26T01:59:32.710Z,101584.28
2017-10-26T02:02:01.795Z,101584.91
2017-10-26T02:04:31.016Z,101593.09
2017-10-26T02:06:59.330Z,101599.47
2017-10-26T02:09:27.653Z,101598.94
2017-10-26T02:11:56.834Z,101610.21
2017-10-26T02:14:25.179Z,101611.66
2017-10-26T02:16:53.558Z,101603.95
2017-10-26T02:19:21.892Z,101596.83
2017-10-26T02:21:51.002Z,101591.55
2017-10-26T02:24:19.407Z,101578.20
2017-10-26T02:26:47.728Z,101572.29
2017-10-26T02:29:33.867Z,101569.89
2017-10-26T02:32:02.334Z,101569.16
2017-10-26T02:34:31.496Z,101570.22
2017-10-26T02:36:59.832Z,101581.53
2017-10-26T02:39:28.174Z,101587.48
2017-10-26T02:41:56.538Z,101591.26
2017-10-26T02:44:24.887Z,101586.97
2017-10-26T02:46:54.013Z,101595.20
2017-10-26T02:49:23.149Z,101603.23
2017-10-26T02:51:51.505Z,101609.48
2017-10-26T02:54:20.632Z,101610.93
2017-10-26T02:56:49.015Z,101597.31
2017-10-26T02:59:17.361Z,101602.44
2017-10-26T03:01:46.459Z,101594.44
2017-10-26T03:04:14.793Z,101588.38
2017-10-26T03:06:43.170Z,101597.14
2017-10-26T03:09:11.556Z,101605.72
2017-10-26T03:11:39.909Z,101606.69
2017-10-26T03:14:08.241Z,101616.28
2017-10-26T03:16:36.590Z,101616.11
2017-10-26T03:19:04.943Z,101612.59
2017-10-26T03:21:33.317Z,101607.67
2017-10-26T03:24:01.618Z,101591.59
2017-10-26T03:26:29.957Z,101591.62
2017-10-26T03:28:58.300Z,101574.54
2017-10-26T03:31:27.402Z,101578.63
2017-10-26T03:33:55.731Z,101584.91
2017-10-26T03:36:24.059Z,101565.83
2017-10-26T03:38:53.150Z,101572.78
2017-10-26T03:41:22.229Z,101574.53
2017-10-26T03:43:50.563Z,101567.83
2017-10-26T03:46:18.880Z,101584.39
2017-10-26T03:48:47.211Z,101592.36
2017-10-26T03:51:15.561Z,101599.41
2017-10-26T03:53:44.651Z,101602.87
2017-10-26T03:56:13.748Z,101613.16
2017-10-26T03:58:42.064Z,101621.66
2017-10-26T04:01:10.399Z,101626.98
2017-10-26T04:03:39.507Z,101630.52
2017-10-26T04:06:07.882Z,101630.80
2017-10-26T04:08:36.974Z,101637.70
2017-10-26T04:11:06.063Z,101637.59
2017-10-26T04:13:34.374Z,101637.29
2017-10-26T04:16:02.710Z,101628.08
2017-10-26T04:18:31.038Z,101628.44
2017-10-26T04:20:59.452Z,101614.58
2017-10-26T04:23:27.839Z,101605.95
2017-10-26T04:25:56.212Z,101585.63
2017-10-26T04:28:24.585Z,101587.53
2017-10-26T04:30:52.962Z,101579.89
2017-10-26T04:33:21.332Z,101587.69
2017-10-26T04:35:49.719Z,101588.30
2017-10-26T04:38:18.095Z,101575.87
2017-10-26T04:40:46.407Z,101567.02
2017-10-26T04:43:15.498Z,101574.66
2017-10-26T04:45:43.890Z,101566.07
2017-10-26T04:48:12.982Z,101570.36
2017-10-26T04:50:42.065Z,101576.59
2017-10-26T04:53:10.463Z,101562.25
2017-10-26T04:55:38.774Z,101569.63
2017-10-26T04:58:07.103Z,101572.64
2017-10-26T05:00:36.253Z,101569.36
2017-10-26T05:03:04.622Z,101574.98
2017-10-26T05:05:32.935Z,101569.03
2017-10-26T05:08:01.278Z,101564.53
2017-10-26T05:10:29.593Z,101578.89
2017-10-26T05:12:57.931Z,101578.66
2017-10-26T05:15:26.234Z,101575.48
2017-10-26T05:17:54.557Z,101586.71
2017-10-26T05:20:23.650Z,101584.08
2017-10-26T05:22:52.741Z,101600.54
2017-10-26T05:25:21.049Z,101598.59
2017-10-26T05:27:49.382Z,101595.03
2017-10-26T05:30:17.698Z,101583.42
2017-10-26T05:32:46.030Z,101594.83
2017-10-26T05:35:14.339Z,101593.55
2017-10-26T05:37:43.426Z,101586.45
2017-10-26T05:40:11.753Z,101581.80
2017-10-26T05:42:40.077Z,101577.03
2017-10-26T05:45:09.168Z,101569.36
2017-10-26T05:47:38.253Z,101571.47
2017-10-26T05:50:06.578Z,101564.69
2017-10-26T05:52:34.902Z,101574.55
2017-10-26T05:55:03.211Z,101576.47
2017-10-26T05:57:32.332Z,101578.69
2017-10-26T06:00:00.661Z,101574.92
2017-10-26T06:02:28.976Z,101572.85
2017-10-26T06:04:57.283Z,101582.67
2017-10-26T06:07:25.614Z,101582.63
2017-10-26T06:09:54.715Z,101575.16
2017-10-26T06:12:23.035Z,101580.29
2017-10-26T06:14:51.363Z,101583.95
2017-10-26T06:17:20.459Z,101575.79
2017-10-26T06:19:49.554Z,101571.82
2017-10-26T06:22:18.654Z,101583.34
2017-10-26T06:24:47.752Z,101589.58
2017-10-26T06:27:16.071Z,101590.20
2017-10-26T06:29:44.399Z,101584.05
2017-10-26T06:32:13.477Z,101583.52
2017-10-26T06:34:41.791Z,101584.08
2017-10-26T06:37:10.103Z,101585.73
2017-10-26T06:39:38.434Z,101578.75
2017-10-26T06:42:07.520Z,101577.44
2017-10-26T06:44:36.605Z,101572.91
2017-10-26T06:47:04.920Z,101576.61
2017-10-26T06:49:33.243Z,101576.48
2017-10-26T06:52:01.567Z,101572.63
2017-10-26T06:54:30.139Z,101574.92
2017-10-26T06:56:59.225Z,101573.20
2017-10-26T06:59:28.320Z,101570.97
2017-10-26T07:01:57.421Z,101576.20
2017-10-26T07:04:26.515Z,101576.58
2017-10-26T07:06:55.603Z,101577.65
2017-10-26T07:09:24.698Z,101579.23
2017-10-26T07:11:53.799Z,101585.10
2017-10-26T07:14:22.898Z,101595.02
2017-10-26T07:16:51.985Z,101595.14
2017-10-26T07:19:21.117Z,101600.56
2017-10-26T07:21:49.426Z,101606.06
2017-10-26T07:24:17.746Z,101601.52
2017-10-26T07:26:46.830Z,101593.11
2017-10-26T07:29:15.924Z,101598.30
2017-10-26T07:31:45.023Z,101602.00
2017-10-26T07:34:14.117Z,101602.69
2017-10-26T07:36:43.197Z,101605.42
2017-10-26T07:39:11.518Z,101599.14
2017-10-26T07:41:39.852Z,101597.57
2017-10-26T07:44:08.184Z,101603.55
2017-10-26T07:46:36.506Z,101604.48
2017-10-26T07:49:04.847Z,101606.06
2017-10-26T07:51:33.177Z,101606.14
2017-10-26T07:54:02.254Z,101601.02
2017-10-26T07:56:30.569Z,101600.63
2017-10-26T07:58:58.880Z,101589.69
2017-10-26T08:01:27.206Z,101585.95
2017-10-26T08:03:56.293Z,101576.35
2017-10-26T08:06:25.393Z,101575.63
2017-10-26T08:08:54.470Z,101571.42
2017-10-26T08:11:22.785Z,101561.31
2017-10-26T08:13:51.111Z,101564.16
2017-10-26T08:16:19.438Z,101563.17
2017-10-26T08:18:48.515Z,101565.84
2017-10-26T08:21:16.839Z,101555.61
2017-10-26T08:23:45.163Z,101558.41
2017-10-26T08:26:13.495Z,101562.73
2017-10-26T08:28:41.818Z,101561.76
2017-10-26T08:31:10.143Z,101564.97
2017-10-26T08:33:38.462Z,101561.62
2017-10-26T08:36:06.787Z,101559.97
2017-10-26T08:38:35.102Z,101572.20
2017-10-26T08:41:04.192Z,101572.45
2017-10-26T08:43:32.507Z,101562.17
2017-10-26T08:46:01.591Z,101563.59
2017-10-26T08:48:29.950Z,101556.02
2017-10-26T08:50:58.266Z,101556.66
2017-10-26T08:53:27.341Z,101568.20
2017-10-26T08:55:55.658Z,101552.51
2017-10-26T08:58:23.968Z,101544.03
2017-10-26T09:00:52.298Z,101548.89
2017-10-26T09:03:21.377Z,101541.69
2017-10-26T09:05:50.471Z,101548.23
2017-10-26T09:08:18.790Z,101543.59
2017-10-26T09:10:47.106Z,101553.38
2017-10-26T09:13:15.417Z,101557.62
2017-10-26T09:15:44.510Z,101546.11
2017-10-26T09:18:13.587Z,101540.98
2017-10-26T09:20:42.014Z,101546.79
2017-10-26T09:23:10.340Z,101544.55
2017-10-26T09:25:38.670Z,101554.94
2017-10-26T09:28:06.983Z,101542.53
2017-10-26T09:30:36.074Z,101529.63
2017-10-26T09:33:09.927Z,101517.91
2017-10-26T09:35:39.010Z,101525.70
2017-10-26T09:38:08.087Z,101518.84
2017-10-26T09:40:36.468Z,101521.55
2017-10-26T09:43:04.794Z,101531.11
2017-10-26T09:45:33.119Z,101532.31
2017-10-26T09:48:01.426Z,101528.87
2017-10-26T09:50:30.518Z,101529.45
2017-10-26T09:52:59.608Z,101539.98
2017-10-26T09:55:28.701Z,101539.80
2017-10-26T09:57:57.010Z,101534.86
2017-10-26T10:00:25.322Z,101531.58
2017-10-26T10:02:53.641Z,101533.73
2017-10-26T10:05:22.715Z,101541.17
2017-10-26T10:07:51.814Z,101537.92
2017-10-26T10:10:20.124Z,101533.43
2017-10-26T10:12:48.447Z,101525.98
2017-10-26T10:15:16.762Z,101522.59
2017-10-26T10:17:45.879Z,101511.46
2017-10-26T10:20:14.191Z,101511.08
2017-10-26T10:22:42.518Z,101506.90
2017-10-26T10:25:11.594Z,101510.95
2017-10-26T10:27:39.915Z,101515.66
2017-10-26T10:30:08.235Z,101515.39
2017-10-26T10:32:36.561Z,101516.29
2017-10-26T10:35:04.874Z,101510.09
2017-10-26T10:37:33.200Z,101505.28
2017-10-26T10:40:02.282Z,101501.73
2017-10-26T10:42:30.606Z,101502.51
2017-10-26T10:44:58.911Z,101500.08
2017-10-26T10:47:27.230Z,101494.13
2017-10-26T10:49:56.297Z,101499.31
2017-10-26T10:52:24.628Z,101493.23
2017-10-26T10:54:52.942Z,101488.63
2017-10-26T10:57:21.259Z,101477.09
2017-10-26T10:59:55.784Z,101475.11
2017-10-26T11:02:24.098Z,101476.41
2017-10-26T11:04:52.405Z,101474.52
2017-10-26T11:07:20.709Z,101478.52
2017-10-26T11:09:49.795Z,101475.59
2017-10-26T11:12:18.887Z,101472.22
2017-10-26T11:14:48.075Z,101470.73
2017-10-26T11:17:16.403Z,101463.23
2017-10-26T11:19:44.731Z,101465.59
2017-10-26T11:22:13.038Z,101458.77
2017-10-26T11:24:42.114Z,101458.04
2017-10-26T11:27:11.190Z,101468.20
2017-10-26T11:29:39.510Z,101458.12
2017-10-26T11:32:07.817Z,101457.56
2017-10-26T11:34:36.135Z,101460.66
2017-10-26T11:37:04.437Z,101458.55
2017-10-26T11:39:32.762Z,101455.49
2017-10-26T11:42:01.071Z,101455.28
2017-10-26T11:44:30.161Z,101451.98
2017-10-26T11:46:58.475Z,101446.11
2017-10-26T11:49:26.795Z,101453.86
2017-10-26T11:51:55.107Z,101443.13
2017-10-26T11:54:23.446Z,101433.84
2017-10-26T11:56:51.754Z,101443.30
2017-10-26T11:59:20.890Z,101440.47
2017-10-26T12:01:49.237Z,101429.39
2017-10-26T12:04:18.371Z,101432.56
2017-10-26T12:06:46.686Z,101425.73
2017-10-26T12:09:15.016Z,101427.16
2017-10-26T12:11:43.338Z,101419.96
2017-10-26T12:14:11.849Z,101416.24
2017-10-26T12:16:40.175Z,101415.74
2017-10-26T12:19:08.490Z,101405.03
2017-10-26T12:21:37.617Z,101400.31
2017-10-26T12:24:05.936Z,101395.75
2017-10-26T12:26:34.290Z,101405.06
2017-10-26T12:29:02.631Z,101403.86
2017-10-26T12:31:31.726Z,101402.48
2017-10-26T12:34:00.831Z,101402.41
2017-10-26T12:36:29.213Z,101397.23
2017-10-26T12:38:57.540Z,101394.20
2017-10-26T12:41:25.857Z,101394.56
2017-10-26T12:43:54.966Z,101390.42
2017-10-26T12:46:23.292Z,101387.97
2017-10-26T12:48:51.635Z,101384.98
2017-10-26T12:51:19.947Z,101379.87
2017-10-26T12:53:48.285Z,101377.11
2017-10-26T12:56:16.621Z,101374.41
2017-10-26T12:58:44.972Z,101369.45
2017-10-26T13:01:13.279Z,101372.55
2017-10-26T13:03:41.619Z,101372.20
2017-10-26T13:06:09.962Z,101376.42
2017-10-26T13:08:38.292Z,101376.81
2017-10-26T13:11:06.611Z,101377.55
2017-10-26T13:13:35.690Z,101371.83
2017-10-26T13:16:04.017Z,101369.25
2017-10-26T13:18:32.384Z,101371.31
2017-10-26T13:21:00.704Z,101378.74
2017-10-26T13:23:29.179Z,101372.98
2017-10-26T13:25:57.896Z,101368.57
2017-10-26T13:28:26.213Z,101365.19
2017-10-26T13:30:54.530Z,101365.69
2017-10-26T13:33:22.854Z,101357.88
2017-10-26T13:35:51.173Z,101367.16
2017-10-26T13:38:19.496Z,101364.17
2017-10-26T13:40:47.813Z,101367.61
2017-10-26T13:43:16.123Z,101367.20
2017-10-26T13:45:44.446Z,101350.78
2017-10-26T13:48:12.757Z,101347.30
2017-10-26T13:50:41.074Z,101350.39
2017-10-26T13:53:10.175Z,101348.50
2017-10-26T13:55:39.259Z,101349.07
2017-10-26T13:58:08.342Z,101365.75
2017-10-26T14:00:36.664Z,101350.17
2017-10-26T14:03:04.978Z,101357.02
2017-10-26T14:05:33.314Z,101362.39
2017-10-26T14:08:01.631Z,101359.82
2017-10-26T14:10:29.947Z,101354.83
2017-10-26T14:12:59.030Z,101358.80
2017-10-26T14:15:27.354Z,101349.65
2017-10-26T14:17:55.680Z,101350.47
2017-10-26T14:20:24.006Z,101348.76
2017-10-26T14:22:52.315Z,101344.75
2017-10-26T14:25:20.626Z,101353.08
2017-10-26T14:27:49.749Z,101350.95
2017-10-26T14:30:18.065Z,101360.23
2017-10-26T14:32:47.139Z,101355.72
2017-10-26T14:35:15.453Z,101362.77
2017-10-26T14:37:44.095Z,101366.58
2017-10-26T14:40:12.415Z,101357.65
2017-10-26T14:42:40.731Z,101350.15
2017-10-26T14:45:09.046Z,101350.45
2017-10-26T14:47:37.352Z,101351.87
2017-10-26T14:50:05.674Z,101356.81
2017-10-26T14:52:34.650Z,101356.09
2017-10-26T14:55:03.761Z,101360.89
2017-10-26T14:57:32.079Z,101350.98
2017-10-26T15:00:00.388Z,101350.89
2017-10-26T15:02:29.467Z,101358.47
2017-10-26T15:04:57.801Z,101359.31
2017-10-26T15:07:26.114Z,101361.50
2017-10-26T15:09:54.430Z,101360.50
2017-10-26T15:12:23.506Z,101356.63
2017-10-26T15:14:51.826Z,101366.06
2017-10-26T15:17:20.132Z,101359.30
2017-10-26T15:19:48.446Z,101358.35
2017-10-26T15:22:17.530Z,101355.91
2017-10-26T15:24:45.842Z,101357.05
2017-10-26T15:27:14.195Z,101359.83
2017-10-26T15:29:43.263Z,101352.48
2017-10-26T15:32:11.573Z,101354.48
2017-10-26T15:34:40.651Z,101355.39
2017-10-26T15:37:08.981Z,101348.30
2017-10-26T15:39:37.282Z,101340.50
2017-10-26T15:42:06.358Z,101337.52
2017-10-26T15:44:34.694Z,101335.86
2017-10-26T15:47:03.784Z,101336.39
2017-10-26T15:49:32.878Z,101332.05
2017-10-26T15:52:01.962Z,101330.72
2017-10-26T15:54:30.281Z,101324.38
2017-10-26T15:56:58.607Z,101329.05
2017-10-26T15:59:26.922Z,101312.88
2017-10-26T16:01:55.244Z,101314.95
2017-10-26T16:04:23.565Z,101314.48
2017-10-26T16:06:52.657Z,101315.70
2017-10-26T16:09:21.783Z,101319.44
2017-10-26T16:11:50.122Z,101314.87
2017-10-26T16:14:18.459Z,101313.30
2017-10-26T16:16:46.814Z,101310.59
2017-10-26T16:19:15.138Z,101309.16
2017-10-26T16:21:43.492Z,101308.70
2017-10-26T16:24:11.811Z,101309.92
2017-10-26T16:26:40.131Z,101304.27
2017-10-26T16:29:08.496Z,101300.84
2017-10-26T16:31:36.882Z,101309.04
2017-10-26T16:34:05.203Z,101313.39
2017-10-26T16:36:33.543Z,101328.94
2017-10-26T16:39:01.869Z,101325.85
2017-10-26T16:41:30.210Z,101329.84
2017-10-26T16:43:58.551Z,101322.42
2017-10-26T16:46:27.669Z,101322.86
2017-10-26T16:48:55.996Z,101324.58
2017-10-26T16:51:24.339Z,101320.68
2017-10-26T16:53:52.647Z,101320.61
2017-10-26T16:56:20.986Z,101318.44
2017-10-26T16:58:49.341Z,101323.08
2017-10-26T17:01:18.452Z,101322.34
2017-10-26T17:03:46.788Z,101324.69
2017-10-26T17:06:15.154Z,101322.44
2017-10-26T17:08:43.488Z,101316.20
2017-10-26T17:11:11.883Z,101315.59
2017-10-26T17:13:40.223Z,101311.36
2017-10-26T17:16:09.337Z,101310.53
2017-10-26T17:18:37.714Z,101303.14
2017-10-26T17:21:06.053Z,101302.67
2017-10-26T17:23:34.394Z,101300.97
2017-10-26T17:26:02.730Z,101303.72
2017-10-26T17:28:31.820Z,101307.55
2017-10-26T17:31:00.932Z,101298.23
2017-10-26T17:33:29.320Z,101299.34
2017-10-26T17:35:57.698Z,101299.19
2017-10-26T17:38:26.036Z,101302.42
2017-10-26T17:40:54.409Z,101301.03
2017-10-26T17:43:22.747Z,101297.29
2017-10-26T17:45:51.097Z,101300.56
2017-10-26T17:48:19.432Z,101293.42
2017-10-26T17:50:47.757Z,101299.06
2017-10-26T17:53:16.118Z,101293.42
2017-10-26T17:55:45.199Z,101289.27
2017-10-26T17:58:13.526Z,101285.98
2017-10-26T18:00:41.863Z,101290.60
2017-10-26T18:03:10.210Z,101300.33
2017-10-26T18:05:38.559Z,101292.33
2017-10-26T18:08:06.882Z,101285.28
2017-10-26T18:10:35.231Z,101284.49
2017-10-26T18:13:03.551Z,101285.97
2017-10-26T18:15:31.891Z,101277.31
2017-10-26T18:18:00.231Z,101267.28
2017-10-26T18:20:28.556Z,101260.23
2017-10-26T18:22:56.883Z,101253.42
2017-10-26T18:25:25.208Z,101252.67
2017-10-26T18:27:53.534Z,101245.48
2017-10-26T18:30:21.863Z,101246.35
2017-10-26T18:32:50.238Z,101254.61
2017-10-26T18:35:18.562Z,101255.99
2017-10-26T18:37:46.880Z,101263.36
2017-10-26T18:40:15.219Z,101257.08
2017-10-26T18:42:44.319Z,101259.09
2017-10-26T18:45:12.639Z,101264.30
2017-10-26T18:47:41.753Z,101262.95
2017-10-26T18:50:10.079Z,101259.92
2017-10-26T18:52:38.400Z,101265.47
2017-10-26T18:55:06.719Z,101271.69
2017-10-26T18:57:35.821Z,101282.34
2017-10-26T19:00:04.151Z,101284.73
2017-10-26T19:02:32.476Z,101281.25
2017-10-26T19:05:01.628Z,101285.36
2017-10-26T19:07:29.947Z,101279.91
2017-10-26T19:09:58.286Z,101277.58
2017-10-26T19:12:26.631Z,101274.14
2017-10-26T19:14:54.949Z,101268.67
2017-10-26T19:17:23.302Z,101261.60
2017-10-26T19:19:51.615Z,101263.84
2017-10-26T19:22:20.710Z,101258.70
2017-10-26T19:24:49.028Z,101257.44
2017-10-26T19:27:17.375Z,101258.57
2017-10-26T19:29:46.464Z,101264.05
2017-10-26T19:32:15.590Z,101256.14
2017-10-26T19:34:43.919Z,101236.06
2017-10-26T19:37:12.239Z,101235.27
2017-10-26T19:39:40.563Z,101247.35
2017-10-26T19:42:08.887Z,101241.69
2017-10-26T19:44:37.983Z,101239.52
2017-10-26T19:47:06.310Z,101229.13
2017-10-26T19:49:34.650Z,101235.39
2017-10-26T19:52:02.967Z,101244.06
2017-10-26T19:54:31.292Z,101249.87
2017-10-26T19:57:00.381Z,101252.26
2017-10-26T19:59:29.489Z,101244.76
2017-10-26T20:01:58.573Z,101236.92
2017-10-26T20:04:27.667Z,101242.66
2017-10-26T20:06:55.999Z,101249.00
2017-10-26T20:09:24.349Z,101246.97
2017-10-26T20:11:52.677Z,101244.56
2017-10-26T20:14:21.007Z,101238.62
2017-10-26T20:16:49.334Z,101250.37
2017-10-26T20:19:17.654Z,101253.45
2017-10-26T20:21:45.970Z,101235.77
2017-10-26T20:24:14.315Z,101238.28
2017-10-26T20:26:42.643Z,101239.23
2017-10-26T20:29:10.966Z,101237.22
2017-10-26T20:31:39.296Z,101238.93
2017-10-26T20:34:07.618Z,101236.58
2017-10-26T20:36:35.949Z,101237.13
2017-10-26T20:39:04.269Z,101236.27
2017-10-26T20:41:33.390Z,101221.33
2017-10-26T20:44:01.722Z,101218.24
2017-10-26T20:46:30.031Z,101222.20
2017-10-26T20:48:58.369Z,101219.66
2017-10-26T20:54:39.848Z,101213.92
2017-10-26T20:57:13.509Z,101208.95
2017-10-26T20:59:47.564Z,101209.58
2017-10-26T21:02:21.572Z,101198.80
2017-10-26T21:04:56.078Z,101215.30
2017-10-26T21:07:29.890Z,101210.88
2017-10-26T21:09:58.242Z,101212.31
2017-10-26T21:12:32.064Z,101202.56
2017-10-26T21:15:00.419Z,101197.48
2017-10-26T21:17:28.755Z,101193.68
2017-10-26T21:19:57.104Z,101201.38
2017-10-26T21:22:25.442Z,101206.84
2017-10-26T21:24:54.615Z,101206.36
2017-10-26T21:27:22.926Z,101203.83
2017-10-26T21:29:52.060Z,101200.48
2017-10-26T21:32:20.382Z,101203.98
2017-10-26T21:34:48.735Z,101207.39
2017-10-26T21:37:17.078Z,101200.91
2017-10-26T21:39:45.430Z,101198.78
2017-10-26T21:42:14.531Z,101201.52
2017-10-26T21:44:42.902Z,101192.25
2017-10-26T21:47:11.999Z,101176.70
2017-10-26T21:49:41.138Z,101182.02
2017-10-26T21:52:09.521Z,101181.60
2017-10-26T21:54:37.886Z,101172.13
2017-10-26T21:57:06.226Z,101166.79
2017-10-26T21:59:35.366Z,101158.00
2017-10-26T22:02:03.698Z,101162.39
2017-10-26T22:04:32.843Z,101155.81
2017-10-26T22:07:01.157Z,101159.72
2017-10-26T22:09:29.523Z,101152.27
2017-10-26T22:11:57.873Z,101151.60
2017-10-26T22:14:26.236Z,101154.84
2017-10-26T22:16:54.550Z,101152.74
2017-10-26T22:19:22.900Z,101157.54
2017-10-26T22:21:51.254Z,101155.89
2017-10-26T22:24:19.620Z,101155.34
2017-10-26T22:26:48.743Z,101149.48
2017-10-26T22:29:17.104Z,101140.56
2017-10-26T22:31:45.435Z,101139.58
2017-10-26T22:34:13.757Z,101137.08
2017-10-26T22:36:42.900Z,101134.89
2017-10-26T22:39:11.226Z,101145.99
2017-10-26T22:41:40.365Z,101143.65
2017-10-26T22:44:08.700Z,101144.72
2017-10-26T22:46:37.854Z,101139.02
2017-10-26T22:49:06.169Z,101144.19
2017-10-26T22:51:35.297Z,101130.08
2017-10-26T22:54:03.611Z,101131.66
2017-10-26T22:56:31.938Z,101120.67
2017-10-26T22:59:00.259Z,101115.37
2017-10-26T23:01:28.592Z,101122.51
2017-10-26T23:03:56.910Z,101130.31
2017-10-26T23:06:25.262Z,101119.95
2017-10-26T23:08:53.594Z,101118.96
2017-10-26T23:11:21.947Z,101118.84
2017-10-26T23:13:50.294Z,101124.23
2017-10-26T23:16:18.630Z,101117.41
2017-10-26T23:18:46.985Z,101119.31
2017-10-26T23:21:15.303Z,101117.82
2017-10-26T23:23:44.429Z,101112.84
2017-10-26T23:26:12.755Z,101114.08
2017-10-26T23:28:41.074Z,101108.41
2017-10-26T23:31:09.402Z,101105.80
2017-10-26T23:33:37.721Z,101095.73
2017-10-26T23:36:06.054Z,101106.82
2017-10-26T23:38:34.373Z,101111.48
2017-10-26T23:41:03.473Z,101115.41
2017-10-26T23:43:31.791Z,101109.58
2017-10-26T23:46:00.101Z,101107.86
2017-10-26T23:48:28.408Z,101088.75
2017-10-26T23:50:56.746Z,101103.68
2017-10-26T23:53:25.065Z,101089.17
2017-10-26T23:55:53.376Z,101093.19
2017-10-26T23:58:21.723Z,101089.98
